^^
Grace C. Lehan Memorial Weather Station Historical Data
Daily Summary for September 27, 2021 Units:  English    Metric   Both
Daily Weekly Monthly Yearly
  High: Low: Average:
Temperature: 38.3 °F 31.2 °F 34.3 °F
Dew Point: 27.1 °F 23.8 °F 25.2 °F
Humidity: 74% 62.3% 69%
Wind Speed: 9mph 0mph 1.5mph
Wind Gust: 22mph - -
Wind- - WNW
Pressure: 30.08 in 29.99 in -
Precipitation: 0.00 in    
 
 
Tabular Data for September 27, 2021
Time Temperature Dew Point Pressure Wind Wind Speed Wind Gust Humidity Rainfall Rate (Hourly) solar
00:04 38.3 °F 27 °F 30.00 in NW 4.8 mph 14 mph 63.3% 0.00 in 0 W/m2
00:09 38.3 °F 27 °F 30.00 in NW 2.9 mph 13 mph 63.4% 0.00 in 0 W/m2
00:14 38.3 °F 27.1 °F 30.00 in NW 4.2 mph 13 mph 63.7% 0.00 in 0 W/m2
00:19 38.2 °F 27.1 °F 30.00 in NNW 2.5 mph 14 mph 64% 0.00 in 0 W/m2
00:24 38.2 °F 27.1 °F 30.00 in NW 2.4 mph 14 mph 64% 0.00 in 0 W/m2
00:29 38.1 °F 27 °F 30.00 in NNW 2.6 mph 14 mph 64% 0.00 in 0 W/m2
00:34 38 °F 26.9 °F 30.00 in NW 3.8 mph 14 mph 64% 0.00 in 0 W/m2
00:39 37.8 °F 26.7 °F 30.00 in NW 5 mph 16 mph 63.8% 0.00 in 0 W/m2
00:44 37.7 °F 26.2 °F 30.00 in NNW 4.2 mph 16 mph 62.8% 0.00 in 0 W/m2
00:49 37.6 °F 25.9 °F 30.01 in NW 6 mph 16 mph 62.3% 0.00 in 0 W/m2
00:54 37.5 °F 25.9 °F 30.01 in NNW 1.8 mph 16 mph 62.6% 0.00 in 0 W/m2
00:59 37.4 °F 26 °F 30.01 in NW 2.4 mph 16 mph 63% 0.00 in 0 W/m2
01:04 37.3 °F 25.9 °F 30.01 in NNW 2.2 mph 16 mph 63% 0.00 in 0 W/m2
01:09 37.2 °F 25.8 °F 30.01 in NW 1.9 mph 10 mph 63% 0.00 in 0 W/m2
01:14 37.1 °F 25.7 °F 30.02 in NNW 1.8 mph 11 mph 63.1% 0.00 in 0 W/m2
01:19 37 °F 25.9 °F 30.02 in NW 2.8 mph 11 mph 63.8% 0.00 in 0 W/m2
01:24 36.9 °F 25.9 °F 30.02 in NW 3 mph 12 mph 64% 0.00 in 0 W/m2
01:29 36.8 °F 25.8 °F 30.02 in NW 2.6 mph 12 mph 64% 0.00 in 0 W/m2
01:34 36.8 °F 25.8 °F 30.03 in NW 6.2 mph 22 mph 64% 0.00 in 0 W/m2
01:39 36.7 °F 25.7 °F 30.03 in NNW 6.1 mph 22 mph 64% 0.00 in 0 W/m2
01:44 36.8 °F 25.8 °F 30.03 in NW 6.8 mph 22 mph 64.2% 0.00 in 0 W/m2
01:49 36.8 °F 25.9 °F 30.03 in NNW 4.3 mph 22 mph 64.4% 0.00 in 0 W/m2
01:54 36.8 °F 26.1 °F 30.03 in NNW 4.6 mph 22 mph 65% 0.00 in 0 W/m2
01:59 36.7 °F 26.1 °F 30.03 in NW 2.7 mph 22 mph 65% 0.00 in 0 W/m2
02:04 36.6 °F 26 °F 30.03 in NW 3.1 mph 22 mph 65% 0.00 in 0 W/m2
02:09 36.5 °F 25.9 °F 30.03 in NNW 3.8 mph 12 mph 65% 0.00 in 0 W/m2
02:14 36.5 °F 25.8 °F 30.03 in NNW 2.5 mph 12 mph 65% 0.00 in 0 W/m2
02:19 36.4 °F 26.1 °F 30.03 in NW 4.9 mph 13 mph 66% 0.00 in 0 W/m2
02:24 36.4 °F 26.1 °F 30.03 in NNW 3.3 mph 13 mph 66% 0.00 in 0 W/m2
02:29 36.4 °F 26.1 °F 30.03 in NW 1.3 mph 13 mph 66% 0.00 in 0 W/m2
02:34 36.3 °F 26.1 °F 30.04 in NNW 3.1 mph 13 mph 66% 0.00 in 0 W/m2
02:39 36.3 °F 26.3 °F 30.04 in NNW 0.8 mph 11 mph 66.7% 0.00 in 0 W/m2
02:44 36.3 °F 26.4 °F 30.04 in NW 2.9 mph 11 mph 67% 0.00 in 0 W/m2
02:49 36.3 °F 26.4 °F 30.04 in NW 2.3 mph 11 mph 67% 0.00 in 0 W/m2
02:54 36.2 °F 26.3 °F 30.04 in NW 5.5 mph 15 mph 67% 0.00 in 0 W/m2
02:59 36.2 °F 26.3 °F 30.03 in NW 2.9 mph 15 mph 67% 0.00 in 0 W/m2
03:04 36.1 °F 26.6 °F 30.03 in NW 2 mph 15 mph 68% 0.00 in 0 W/m2
03:09 36.1 °F 26.6 °F 30.03 in NW 2.7 mph 9 mph 68% 0.00 in 0 W/m2
03:14 36 °F 26.3 °F 30.03 in NW 2 mph 10 mph 67.5% 0.00 in 0 W/m2
03:19 35.9 °F 26.2 °F 30.03 in NNW 2.2 mph 10 mph 67.5% 0.00 in 0 W/m2
03:24 35.8 °F 26.3 °F 30.02 in NNW 2.3 mph 10 mph 68% 0.00 in 0 W/m2
03:29 35.6 °F 26.1 °F 30.02 in NNW 2 mph 10 mph 68% 0.00 in 0 W/m2
03:34 35.4 °F 25.9 °F 30.02 in NW 1.7 mph 10 mph 68% 0.00 in 0 W/m2
03:39 35.2 °F 25.7 °F 30.02 in NNW 3.1 mph 10 mph 68% 0.00 in 0 W/m2
03:44 35 °F 25.5 °F 30.01 in NNW 2.1 mph 10 mph 68% 0.00 in 0 W/m2
03:49 34.8 °F 25.4 °F 30.01 in NNW 2.3 mph 10 mph 68% 0.00 in 0 W/m2
03:54 34.7 °F 25.1 °F 30.01 in NW 3.4 mph 10 mph 67.7% 0.00 in 0 W/m2
03:59 34.5 °F 24.9 °F 30.01 in NW 1.8 mph 13 mph 67.4% 0.00 in 0 W/m2
04:00 34.5 °F 24.7 °F 30.01 in NNW 9 mph 13 mph 67% 0.00 in 0 W/m2
04:09 34.3 °F 24.9 °F 30.02 in NW 0.7 mph 3 mph 68% 0.00 in 0 W/m2
04:14 34.2 °F 24.7 °F 30.02 in NW 1 mph 5 mph 68% 0.00 in 0 W/m2
04:19 34.1 °F 24.6 °F 30.02 in NW 1.1 mph 5 mph 68% 0.00 in 0 W/m2
04:24 33.9 °F 24.5 °F 30.03 in NW 0.3 mph 5 mph 68% 0.00 in 0 W/m2
04:29 33.8 °F 24.5 °F 30.04 in NW 0.1 mph 5 mph 68.5% 0.00 in 0 W/m2
04:34 33.7 °F 24.5 °F 30.04 in NW 0.3 mph 5 mph 68.7% 0.00 in 0 W/m2
04:39 33.5 °F 24.5 °F 30.04 in NW 0.1 mph 3 mph 69% 0.00 in 0 W/m2
04:44 33.4 °F 24.3 °F 30.04 in NW 0.2 mph 3 mph 69% 0.00 in 0 W/m2
04:49 33.2 °F 24.3 °F 30.04 in Calm   3 mph 69.4% 0.00 in 0 W/m2
04:54 33 °F 24.3 °F 30.05 in NW 0.2 mph 3 mph 70% 0.00 in 0 W/m2
04:59 32.9 °F 24.2 °F 30.05 in NW 0.9 mph 3 mph 70% 0.00 in 0 W/m2
05:04 32.8 °F 24.4 °F 30.05 in Calm   3 mph 71% 0.00 in 0 W/m2
05:09 32.6 °F 24.3 °F 30.04 in Calm     71% 0.00 in 0 W/m2
05:14 32.5 °F 24.1 °F 30.05 in Calm     71% 0.00 in 0 W/m2
05:19 32.3 °F 24 °F 30.05 in Calm     71% 0.00 in 0 W/m2
05:24 32.2 °F 23.9 °F 30.05 in Calm     71% 0.00 in 0 W/m2
05:29 32 °F 23.9 °F 30.05 in Calm     71.7% 0.00 in 0 W/m2
05:34 31.9 °F 24.2 °F 30.05 in Calm     72.7% 0.00 in 0 W/m2
05:39 31.8 °F 23.8 °F 30.05 in Calm     72% 0.00 in 0 W/m2
05:44 31.6 °F 23.9 °F 30.04 in Calm     72.7% 0.00 in 0 W/m2
05:49 31.5 °F 23.9 °F 30.05 in Calm     73% 0.00 in 0 W/m2
05:54 31.4 °F 24 °F 30.05 in Calm     73.5% 0.00 in 0 W/m2
05:59 31.4 °F 24 °F 30.05 in Calm     74% 0.00 in 0 W/m2
06:04 31.3 °F 23.9 °F 30.05 in Calm     74% 0.00 in 0 W/m2
06:09 31.2 °F 23.9 °F 30.05 in NW 0.1 mph 2 mph 74% 0.00 in 0 W/m2
06:14 31.2 °F 23.9 °F 30.05 in Calm   2 mph 74% 0.00 in 0 W/m2
06:19 31.2 °F 23.9 °F 30.05 in Calm   2 mph 74% 0.00 in 0 W/m2
06:24 31.3 °F 24 °F 30.05 in NW 0.1 mph 2 mph 74% 0.00 in 0 W/m2
06:29 31.4 °F 24.1 °F 30.06 in NW 0.2 mph 2 mph 74% 0.00 in 0 W/m2
06:34 31.4 °F 24.1 °F 30.06 in Calm   2 mph 74% 0.00 in 0 W/m2
06:39 31.4 °F 24.1 °F 30.05 in NW 0.2 mph 2 mph 74% 0.00 in 0 W/m2
06:44 31.5 °F 24.2 °F 30.05 in NW 0.4 mph 3 mph 74% 0.00 in 0 W/m2
06:49 31.5 °F 24.2 °F 30.05 in NW 0.1 mph 3 mph 74% 0.00 in 0 W/m2
06:54 31.5 °F 24.2 °F 30.05 in NW 1.3 mph 6 mph 74% 0.00 in 0 W/m2
06:59 31.6 °F 24.1 °F 30.05 in NW 0.1 mph 6 mph 73.5% 0.00 in 0 W/m2
07:04 31.7 °F 24.1 °F 30.06 in NW 0.2 mph 6 mph 73.2% 0.00 in 0 W/m2
07:09 31.7 °F 24.2 °F 30.06 in NW 0.3 mph 3 mph 73.3% 0.00 in 5 W/m2
07:14 31.8 °F 24.2 °F 30.06 in NW 0.2 mph 3 mph 73.2% 0.00 in 5 W/m2
07:19 31.9 °F 24.2 °F 30.06 in NW 0.2 mph 3 mph 73% 0.00 in 0 W/m2
07:24 31.9 °F 24.2 °F 30.06 in NW 0.5 mph 4 mph 73% 0.00 in 5 W/m2
07:29 31.9 °F 24.4 °F 30.07 in NW 1.4 mph 5 mph 73.4% 0.00 in 9 W/m2
07:34 31.9 °F 24.6 °F 30.07 in NW 0.2 mph 5 mph 74% 0.00 in 11 W/m2
07:39 31.9 °F 24.3 °F 30.08 in Calm   3 mph 73.1% 0.00 in 14 W/m2
07:44 32 °F 24.3 °F 30.08 in NW 0.3 mph 3 mph 73% 0.00 in 19 W/m2
07:49 32 °F 24.3 °F 30.08 in NW 0.7 mph 3 mph 73% 0.00 in 23 W/m2
07:54 32.1 °F 24.4 °F 30.08 in NW 0.2 mph 3 mph 73% 0.00 in 25 W/m2
07:59 32.1 °F 24.5 °F 30.08 in NW 0.2 mph 3 mph 73% 0.00 in 32 W/m2
08:09 32.3 °F 24.6 °F 30.07 in NW 0.7 mph 4 mph 73% 0.00 in 33 W/m2
08:14 32.4 °F 24.5 °F 30.07 in NW 0.3 mph 4 mph 72.5% 0.00 in 37 W/m2
08:19 32.5 °F 24.6 °F 30.07 in Calm   4 mph 72.6% 0.00 in 39 W/m2
08:24 32.6 °F 24.9 °F 30.07 in Calm   4 mph 73% 0.00 in 44 W/m2
08:29 32.6 °F 24.9 °F 30.07 in Calm   4 mph 73% 0.00 in 46 W/m2
08:34 32.7 °F 25 °F 30.07 in NW 0.6 mph 5 mph 72.9% 0.00 in 49 W/m2
08:39 32.8 °F 24.8 °F 30.07 in NW 0.3 mph 5 mph 72% 0.00 in 54 W/m2
08:44 32.9 °F 24.9 °F 30.07 in NNW 1.1 mph 5 mph 72% 0.00 in 62 W/m2
08:49 33 °F 24.9 °F 30.06 in NNE 1.3 mph 5 mph 72% 0.00 in 58 W/m2
08:54 33 °F 25 °F 30.05 in North 1 mph 5 mph 72% 0.00 in 58 W/m2
08:59 33 °F 24.8 °F 30.06 in NNE 1.7 mph 6 mph 71.5% 0.00 in 97 W/m2
09:04 33 °F 24.9 °F 30.05 in NE 1.4 mph 6 mph 71.9% 0.00 in 97 W/m2
09:09 33 °F 25 °F 30.07 in North 1.7 mph 8 mph 72% 0.00 in 70 W/m2
09:14 33.1 °F 25.1 °F 30.08 in NNW 0.7 mph 8 mph 72.1% 0.00 in 69 W/m2
09:19 33.1 °F 25.1 °F 30.08 in NNW 0.9 mph 8 mph 72.1% 0.00 in 56 W/m2
09:24 33.1 °F 25.1 °F 30.08 in NNW 0.9 mph 8 mph 72% 0.00 in 65 W/m2
09:27 33 °F 25 °F 30.08 in NNW 0.4 mph 8 mph 72% 0.00 in 77 W/m2
10:30 33.3 °F 25.3 °F 30.08 in Calm   4 mph 72% 0.00 in 51 W/m2
11:00 33.4 °F 25.4 °F 30.07 in Calm   5 mph 72% 0.00 in 60 W/m2
11:30 33.8 °F 25.1 °F 30.05 in Calm   3 mph 70% 0.00 in 122 W/m2
12:04 34.3 °F 25.5 °F 30.05 in Calm   3 mph 70% 0.00 in 123 W/m2
12:09 34.3 °F 25.6 °F 29.99 in North 0.3 mph 3 mph 70% 0.00 in 149 W/m2
12:14 34.5 °F 25.9 °F 30.00 in North 0.5 mph 3 mph 70.6% 0.00 in 181 W/m2
12:19 34.8 °F 26.4 °F 30.00 in North 0.1 mph 3 mph 71% 0.00 in 181 W/m2
12:24 35 °F 26 °F 30.00 in North 0.8 mph 3 mph 69.4% 0.00 in 148 W/m2
12:29 35 °F 26 °F 29.99 in NNE 0.3 mph 3 mph 69.3% 0.00 in 151 W/m2
12:34 35.1 °F 26.4 °F 30.00 in NNE 1.1 mph 4 mph 70.3% 0.00 in 144 W/m2
12:39 35.2 °F 26.4 °F 30.00 in NNE 1.2 mph 5 mph 69.9% 0.00 in 114 W/m2
12:44 35.3 °F 26.2 °F 30.00 in NNE 1 mph 6 mph 69.1% 0.00 in 123 W/m2
12:49 35.4 °F 26.5 °F 30.00 in NE 1.6 mph 6 mph 69.6% 0.00 in 120 W/m2
12:53 35.3 °F 26.2 °F 30.01 in NE 0.6 mph 6 mph 69% 0.00 in 100 W/m2
Hartford County Weather
Compliments of Weather Underground - 2 mb